sensor_id;sensor_type;location;lat;lon;timestamp;P1;durP1;ratioP1;P2;durP2;ratioP2
52057;SDS011;38063;53.210;6.504;2022-12-18T00:02:15;104.93;;;34.25;;
52057;SDS011;38063;53.210;6.504;2022-12-18T00:04:41;107.65;;;32.60;;
52057;SDS011;38063;53.210;6.504;2022-12-18T00:07:07;98.80;;;31.45;;
52057;SDS011;38063;53.210;6.504;2022-12-18T00:09:32;105.20;;;32.65;;
52057;SDS011;38063;53.210;6.504;2022-12-18T00:11:58;103.63;;;31.98;;
52057;SDS011;38063;53.210;6.504;2022-12-18T00:14:23;108.90;;;32.90;;
52057;SDS011;38063;53.210;6.504;2022-12-18T00:16:49;113.85;;;32.58;;
52057;SDS011;38063;53.210;6.504;2022-12-18T00:19:15;101.47;;;32.75;;
52057;SDS011;38063;53.210;6.504;2022-12-18T00:21:41;103.10;;;33.70;;
52057;SDS011;38063;53.210;6.504;2022-12-18T00:24:07;90.20;;;29.20;;
52057;SDS011;38063;53.210;6.504;2022-12-18T00:26:35;99.22;;;32.50;;
52057;SDS011;38063;53.210;6.504;2022-12-18T00:29:06;101.55;;;32.10;;
52057;SDS011;38063;53.210;6.504;2022-12-18T00:31:35;107.85;;;33.15;;
52057;SDS011;38063;53.210;6.504;2022-12-18T00:34:01;109.30;;;32.53;;
52057;SDS011;38063;53.210;6.504;2022-12-18T00:36:32;93.82;;;31.45;;
52057;SDS011;38063;53.210;6.504;2022-12-18T00:38:59;104.78;;;31.13;;
52057;SDS011;38063;53.210;6.504;2022-12-18T00:41:29;103.53;;;33.03;;
52057;SDS011;38063;53.210;6.504;2022-12-18T00:44:14;106.45;;;31.48;;
52057;SDS011;38063;53.210;6.504;2022-12-18T00:46:42;98.40;;;32.13;;
52057;SDS011;38063;53.210;6.504;2022-12-18T00:49:08;93.20;;;31.10;;
52057;SDS011;38063;53.210;6.504;2022-12-18T00:51:38;108.25;;;31.73;;
52057;SDS011;38063;53.210;6.504;2022-12-18T00:54:04;101.18;;;30.10;;
52057;SDS011;38063;53.210;6.504;2022-12-18T00:56:30;104.72;;;30.48;;
52057;SDS011;38063;53.210;6.504;2022-12-18T00:58:56;101.78;;;32.38;;
52057;SDS011;38063;53.210;6.504;2022-12-18T01:01:22;99.20;;;30.10;;
52057;SDS011;38063;53.210;6.504;2022-12-18T01:03:48;96.32;;;30.30;;
52057;SDS011;38063;53.210;6.504;2022-12-18T01:06:14;107.57;;;31.20;;
52057;SDS011;38063;53.210;6.504;2022-12-18T01:08:40;96.45;;;29.92;;
52057;SDS011;38063;53.210;6.504;2022-12-18T01:11:10;88.13;;;30.42;;
52057;SDS011;38063;53.210;6.504;2022-12-18T01:13:36;88.53;;;27.02;;
52057;SDS011;38063;53.210;6.504;2022-12-18T01:16:02;85.68;;;26.75;;
52057;SDS011;38063;53.210;6.504;2022-12-18T01:18:28;85.03;;;28.40;;
52057;SDS011;38063;53.210;6.504;2022-12-18T01:20:54;82.18;;;28.60;;
52057;SDS011;38063;53.210;6.504;2022-12-18T01:23:19;83.28;;;28.67;;
52057;SDS011;38063;53.210;6.504;2022-12-18T01:25:45;77.35;;;26.45;;
52057;SDS011;38063;53.210;6.504;2022-12-18T01:28:11;91.53;;;28.77;;
52057;SDS011;38063;53.210;6.504;2022-12-18T01:30:36;78.65;;;26.23;;
52057;SDS011;38063;53.210;6.504;2022-12-18T01:33:04;79.65;;;27.27;;
52057;SDS011;38063;53.210;6.504;2022-12-18T01:35:29;79.72;;;27.05;;
52057;SDS011;38063;53.210;6.504;2022-12-18T01:37:55;85.28;;;28.25;;
52057;SDS011;38063;53.210;6.504;2022-12-18T01:40:21;83.53;;;28.67;;
52057;SDS011;38063;53.210;6.504;2022-12-18T01:42:53;76.45;;;26.67;;
52057;SDS011;38063;53.210;6.504;2022-12-18T01:48:03;81.68;;;27.00;;
52057;SDS011;38063;53.210;6.504;2022-12-18T01:50:32;69.95;;;25.45;;
52057;SDS011;38063;53.210;6.504;2022-12-18T01:55:31;78.72;;;27.88;;
52057;SDS011;38063;53.210;6.504;2022-12-18T01:58:02;85.03;;;30.05;;
52057;SDS011;38063;53.210;6.504;2022-12-18T02:00:29;79.75;;;26.10;;
52057;SDS011;38063;53.210;6.504;2022-12-18T02:02:55;71.63;;;25.58;;
52057;SDS011;38063;53.210;6.504;2022-12-18T02:05:40;74.85;;;26.33;;
52057;SDS011;38063;53.210;6.504;2022-12-18T02:08:20;73.78;;;25.00;;
52057;SDS011;38063;53.210;6.504;2022-12-18T02:11:02;83.53;;;25.75;;
52057;SDS011;38063;53.210;6.504;2022-12-18T02:13:53;84.97;;;26.77;;
52057;SDS011;38063;53.210;6.504;2022-12-18T02:16:29;72.13;;;25.88;;
52057;SDS011;38063;53.210;6.504;2022-12-18T02:22:06;80.65;;;28.77;;
52057;SDS011;38063;53.210;6.504;2022-12-18T02:29:44;66.60;;;24.58;;
52057;SDS011;38063;53.210;6.504;2022-12-18T02:32:17;80.53;;;27.02;;
52057;SDS011;38063;53.210;6.504;2022-12-18T02:34:49;83.70;;;26.70;;
52057;SDS011;38063;53.210;6.504;2022-12-18T02:37:18;79.72;;;25.52;;
52057;SDS011;38063;53.210;6.504;2022-12-18T02:39:46;74.40;;;25.38;;
52057;SDS011;38063;53.210;6.504;2022-12-18T02:42:13;79.13;;;26.92;;
52057;SDS011;38063;53.210;6.504;2022-12-18T02:44:47;74.20;;;24.92;;
52057;SDS011;38063;53.210;6.504;2022-12-18T02:47:14;85.20;;;27.38;;
52057;SDS011;38063;53.210;6.504;2022-12-18T02:55:05;79.95;;;26.67;;
52057;SDS011;38063;53.210;6.504;2022-12-18T03:00:15;79.53;;;27.60;;
52057;SDS011;38063;53.210;6.504;2022-12-18T03:02:48;84.78;;;29.60;;
52057;SDS011;38063;53.210;6.504;2022-12-18T03:05:35;85.65;;;29.67;;
52057;SDS011;38063;53.210;6.504;2022-12-18T03:11:23;91.82;;;26.08;;
52057;SDS011;38063;53.210;6.504;2022-12-18T03:14:01;85.97;;;27.10;;
52057;SDS011;38063;53.210;6.504;2022-12-18T03:16:31;82.82;;;28.35;;
52057;SDS011;38063;53.210;6.504;2022-12-18T03:19:02;100.70;;;29.85;;
52057;SDS011;38063;53.210;6.504;2022-12-18T03:21:42;87.32;;;28.05;;
52057;SDS011;38063;53.210;6.504;2022-12-18T03:24:11;84.90;;;26.95;;
52057;SDS011;38063;53.210;6.504;2022-12-18T03:26:37;86.47;;;28.05;;
52057;SDS011;38063;53.210;6.504;2022-12-18T03:29:09;93.80;;;30.90;;
52057;SDS011;38063;53.210;6.504;2022-12-18T03:31:45;89.50;;;29.08;;
52057;SDS011;38063;53.210;6.504;2022-12-18T03:34:17;89.35;;;29.45;;
52057;SDS011;38063;53.210;6.504;2022-12-18T03:36:48;94.18;;;29.17;;
52057;SDS011;38063;53.210;6.504;2022-12-18T03:39:14;97.57;;;28.73;;
52057;SDS011;38063;53.210;6.504;2022-12-18T03:41:43;93.97;;;29.77;;
52057;SDS011;38063;53.210;6.504;2022-12-18T03:44:26;93.93;;;30.23;;
52057;SDS011;38063;53.210;6.504;2022-12-18T03:47:06;98.63;;;29.92;;
52057;SDS011;38063;53.210;6.504;2022-12-18T03:52:36;94.57;;;29.38;;
52057;SDS011;38063;53.210;6.504;2022-12-18T03:55:21;94.68;;;29.88;;
52057;SDS011;38063;53.210;6.504;2022-12-18T03:57:49;91.57;;;30.73;;
52057;SDS011;38063;53.210;6.504;2022-12-18T04:00:17;88.65;;;30.58;;
52057;SDS011;38063;53.210;6.504;2022-12-18T04:02:45;89.20;;;28.90;;
52057;SDS011;38063;53.210;6.504;2022-12-18T04:05:16;88.70;;;30.70;;
52057;SDS011;38063;53.210;6.504;2022-12-18T04:07:43;85.10;;;29.27;;
52057;SDS011;38063;53.210;6.504;2022-12-18T04:10:11;82.47;;;28.10;;
52057;SDS011;38063;53.210;6.504;2022-12-18T04:12:38;88.03;;;29.63;;
52057;SDS011;38063;53.210;6.504;2022-12-18T04:15:04;86.53;;;28.00;;
52057;SDS011;38063;53.210;6.504;2022-12-18T04:17:30;77.13;;;28.95;;
52057;SDS011;38063;53.210;6.504;2022-12-18T04:19:56;82.70;;;29.05;;
52057;SDS011;38063;53.210;6.504;2022-12-18T04:22:22;89.15;;;28.80;;
52057;SDS011;38063;53.210;6.504;2022-12-18T04:24:47;80.05;;;28.15;;
52057;SDS011;38063;53.210;6.504;2022-12-18T04:27:13;86.03;;;28.73;;
52057;SDS011;38063;53.210;6.504;2022-12-18T04:29:39;80.97;;;29.00;;
52057;SDS011;38063;53.210;6.504;2022-12-18T04:32:04;79.72;;;26.23;;
52057;SDS011;38063;53.210;6.504;2022-12-18T04:34:30;81.05;;;28.33;;
52057;SDS011;38063;53.210;6.504;2022-12-18T04:36:56;76.35;;;27.48;;
52057;SDS011;38063;53.210;6.504;2022-12-18T04:39:21;83.10;;;28.23;;
52057;SDS011;38063;53.210;6.504;2022-12-18T04:41:47;78.65;;;27.88;;
52057;SDS011;38063;53.210;6.504;2022-12-18T04:44:13;89.47;;;27.45;;
52057;SDS011;38063;53.210;6.504;2022-12-18T04:46:39;79.68;;;28.13;;
52057;SDS011;38063;53.210;6.504;2022-12-18T04:49:04;78.78;;;25.08;;
52057;SDS011;38063;53.210;6.504;2022-12-18T04:51:30;74.47;;;25.55;;
52057;SDS011;38063;53.210;6.504;2022-12-18T04:53:55;69.07;;;24.65;;
52057;SDS011;38063;53.210;6.504;2022-12-18T04:56:21;80.80;;;27.42;;
52057;SDS011;38063;53.210;6.504;2022-12-18T04:58:47;74.05;;;24.48;;
52057;SDS011;38063;53.210;6.504;2022-12-18T05:01:13;81.35;;;26.73;;
52057;SDS011;38063;53.210;6.504;2022-12-18T05:03:40;79.32;;;26.73;;
52057;SDS011;38063;53.210;6.504;2022-12-18T05:06:06;86.72;;;26.52;;
52057;SDS011;38063;53.210;6.504;2022-12-18T05:08:32;79.80;;;26.88;;
52057;SDS011;38063;53.210;6.504;2022-12-18T05:11:05;74.18;;;24.70;;
52057;SDS011;38063;53.210;6.504;2022-12-18T05:13:36;80.13;;;26.13;;
52057;SDS011;38063;53.210;6.504;2022-12-18T05:16:03;80.32;;;27.73;;
52057;SDS011;38063;53.210;6.504;2022-12-18T05:18:30;77.50;;;26.45;;
52057;SDS011;38063;53.210;6.504;2022-12-18T05:20:56;77.95;;;25.08;;
52057;SDS011;38063;53.210;6.504;2022-12-18T05:23:22;76.55;;;25.20;;
52057;SDS011;38063;53.210;6.504;2022-12-18T05:25:56;86.05;;;26.50;;
52057;SDS011;38063;53.210;6.504;2022-12-18T05:28:24;72.53;;;25.90;;
52057;SDS011;38063;53.210;6.504;2022-12-18T05:30:52;82.45;;;25.55;;
52057;SDS011;38063;53.210;6.504;2022-12-18T05:33:20;80.82;;;25.80;;
52057;SDS011;38063;53.210;6.504;2022-12-18T05:35:54;82.90;;;25.45;;
52057;SDS011;38063;53.210;6.504;2022-12-18T05:38:25;74.78;;;25.33;;
52057;SDS011;38063;53.210;6.504;2022-12-18T05:40:52;75.85;;;25.98;;
52057;SDS011;38063;53.210;6.504;2022-12-18T05:43:19;77.97;;;26.05;;
52057;SDS011;38063;53.210;6.504;2022-12-18T05:45:46;85.00;;;27.70;;
52057;SDS011;38063;53.210;6.504;2022-12-18T05:48:12;72.90;;;25.63;;
52057;SDS011;38063;53.210;6.504;2022-12-18T05:50:39;73.10;;;26.77;;
52057;SDS011;38063;53.210;6.504;2022-12-18T05:53:06;79.50;;;25.33;;
52057;SDS011;38063;53.210;6.504;2022-12-18T05:55:35;77.93;;;24.15;;
52057;SDS011;38063;53.210;6.504;2022-12-18T05:58:02;68.63;;;25.42;;
52057;SDS011;38063;53.210;6.504;2022-12-18T06:00:29;66.88;;;23.77;;
52057;SDS011;38063;53.210;6.504;2022-12-18T06:02:55;68.70;;;23.88;;
52057;SDS011;38063;53.210;6.504;2022-12-18T06:05:21;70.72;;;24.98;;
52057;SDS011;38063;53.210;6.504;2022-12-18T06:07:46;72.95;;;24.17;;
52057;SDS011;38063;53.210;6.504;2022-12-18T06:10:12;71.25;;;24.48;;
52057;SDS011;38063;53.210;6.504;2022-12-18T06:12:37;72.38;;;23.17;;
52057;SDS011;38063;53.210;6.504;2022-12-18T06:15:03;68.72;;;23.50;;
52057;SDS011;38063;53.210;6.504;2022-12-18T06:17:30;74.47;;;22.95;;
52057;SDS011;38063;53.210;6.504;2022-12-18T06:19:56;72.50;;;24.40;;
52057;SDS011;38063;53.210;6.504;2022-12-18T06:22:22;73.10;;;23.85;;
52057;SDS011;38063;53.210;6.504;2022-12-18T06:24:48;74.68;;;22.92;;
52057;SDS011;38063;53.210;6.504;2022-12-18T06:27:13;70.78;;;23.30;;
52057;SDS011;38063;53.210;6.504;2022-12-18T06:29:39;68.20;;;24.17;;
52057;SDS011;38063;53.210;6.504;2022-12-18T06:32:04;69.63;;;25.02;;
52057;SDS011;38063;53.210;6.504;2022-12-18T06:34:30;64.70;;;23.02;;
52057;SDS011;38063;53.210;6.504;2022-12-18T06:36:56;69.28;;;23.48;;
52057;SDS011;38063;53.210;6.504;2022-12-18T06:39:21;67.55;;;24.52;;
52057;SDS011;38063;53.210;6.504;2022-12-18T06:41:47;67.57;;;23.38;;
52057;SDS011;38063;53.210;6.504;2022-12-18T06:44:13;64.15;;;22.85;;
52057;SDS011;38063;53.210;6.504;2022-12-18T06:46:38;65.10;;;22.35;;
52057;SDS011;38063;53.210;6.504;2022-12-18T06:49:04;62.95;;;21.63;;
52057;SDS011;38063;53.210;6.504;2022-12-18T06:51:29;65.03;;;23.17;;
52057;SDS011;38063;53.210;6.504;2022-12-18T06:53:55;56.80;;;19.92;;
52057;SDS011;38063;53.210;6.504;2022-12-18T06:56:21;59.05;;;21.20;;
52057;SDS011;38063;53.210;6.504;2022-12-18T06:58:46;60.38;;;21.90;;
52057;SDS011;38063;53.210;6.504;2022-12-18T07:01:12;65.55;;;21.40;;
52057;SDS011;38063;53.210;6.504;2022-12-18T07:03:39;59.72;;;20.88;;
52057;SDS011;38063;53.210;6.504;2022-12-18T07:06:05;56.88;;;20.45;;
52057;SDS011;38063;53.210;6.504;2022-12-18T07:08:36;62.13;;;20.42;;
52057;SDS011;38063;53.210;6.504;2022-12-18T07:11:02;54.15;;;20.85;;
52057;SDS011;38063;53.210;6.504;2022-12-18T07:13:29;54.55;;;19.35;;
52057;SDS011;38063;53.210;6.504;2022-12-18T07:15:54;58.05;;;21.08;;
52057;SDS011;38063;53.210;6.504;2022-12-18T07:18:20;58.55;;;20.95;;
52057;SDS011;38063;53.210;6.504;2022-12-18T07:20:46;53.42;;;19.60;;
52057;SDS011;38063;53.210;6.504;2022-12-18T07:23:11;47.22;;;19.73;;
52057;SDS011;38063;53.210;6.504;2022-12-18T07:25:37;51.22;;;18.27;;
52057;SDS011;38063;53.210;6.504;2022-12-18T07:28:04;49.22;;;17.98;;
52057;SDS011;38063;53.210;6.504;2022-12-18T07:30:30;49.78;;;20.90;;
52057;SDS011;38063;53.210;6.504;2022-12-18T07:32:55;51.28;;;19.40;;
52057;SDS011;38063;53.210;6.504;2022-12-18T07:35:21;55.05;;;20.45;;
52057;SDS011;38063;53.210;6.504;2022-12-18T07:37:46;49.17;;;19.65;;
52057;SDS011;38063;53.210;6.504;2022-12-18T07:40:12;48.55;;;19.38;;
52057;SDS011;38063;53.210;6.504;2022-12-18T07:42:38;42.83;;;17.23;;
52057;SDS011;38063;53.210;6.504;2022-12-18T07:45:03;47.22;;;18.35;;
52057;SDS011;38063;53.210;6.504;2022-12-18T07:47:30;42.17;;;17.33;;
52057;SDS011;38063;53.210;6.504;2022-12-18T07:49:55;43.90;;;17.17;;
52057;SDS011;38063;53.210;6.504;2022-12-18T07:52:21;43.80;;;17.60;;
52057;SDS011;38063;53.210;6.504;2022-12-18T07:54:46;49.40;;;18.40;;
52057;SDS011;38063;53.210;6.504;2022-12-18T07:57:15;44.92;;;18.13;;
52057;SDS011;38063;53.210;6.504;2022-12-18T07:59:41;43.42;;;16.67;;
52057;SDS011;38063;53.210;6.504;2022-12-18T08:02:07;42.50;;;16.95;;
52057;SDS011;38063;53.210;6.504;2022-12-18T08:04:33;39.50;;;16.35;;
52057;SDS011;38063;53.210;6.504;2022-12-18T08:06:59;39.15;;;17.02;;
52057;SDS011;38063;53.210;6.504;2022-12-18T08:09:25;44.58;;;18.27;;
52057;SDS011;38063;53.210;6.504;2022-12-18T08:11:51;47.75;;;16.67;;
52057;SDS011;38063;53.210;6.504;2022-12-18T08:14:16;51.05;;;18.20;;
52057;SDS011;38063;53.210;6.504;2022-12-18T08:16:42;41.92;;;17.23;;
52057;SDS011;38063;53.210;6.504;2022-12-18T08:19:07;43.95;;;17.63;;
52057;SDS011;38063;53.210;6.504;2022-12-18T08:21:33;42.95;;;17.80;;
52057;SDS011;38063;53.210;6.504;2022-12-18T08:23:59;47.08;;;18.02;;
52057;SDS011;38063;53.210;6.504;2022-12-18T08:26:27;44.95;;;17.77;;
52057;SDS011;38063;53.210;6.504;2022-12-18T08:28:55;42.60;;;17.60;;
52057;SDS011;38063;53.210;6.504;2022-12-18T08:31:21;41.72;;;17.40;;
52057;SDS011;38063;53.210;6.504;2022-12-18T08:33:48;41.67;;;17.15;;
52057;SDS011;38063;53.210;6.504;2022-12-18T08:36:15;47.40;;;17.55;;
52057;SDS011;38063;53.210;6.504;2022-12-18T08:38:40;39.65;;;17.65;;
52057;SDS011;38063;53.210;6.504;2022-12-18T08:41:07;37.08;;;17.70;;
52057;SDS011;38063;53.210;6.504;2022-12-18T08:43:35;35.47;;;15.80;;
52057;SDS011;38063;53.210;6.504;2022-12-18T08:46:19;40.42;;;16.58;;
52057;SDS011;38063;53.210;6.504;2022-12-18T08:48:46;40.45;;;17.17;;
52057;SDS011;38063;53.210;6.504;2022-12-18T08:51:12;40.70;;;17.05;;
52057;SDS011;38063;53.210;6.504;2022-12-18T08:53:40;38.45;;;17.13;;
52057;SDS011;38063;53.210;6.504;2022-12-18T08:56:07;38.97;;;16.95;;
52057;SDS011;38063;53.210;6.504;2022-12-18T08:58:32;41.08;;;16.70;;
52057;SDS011;38063;53.210;6.504;2022-12-18T09:01:05;39.03;;;15.25;;
52057;SDS011;38063;53.210;6.504;2022-12-18T09:03:33;36.97;;;16.23;;
52057;SDS011;38063;53.210;6.504;2022-12-18T09:05:59;37.40;;;15.40;;
52057;SDS011;38063;53.210;6.504;2022-12-18T09:08:25;38.13;;;17.67;;
52057;SDS011;38063;53.210;6.504;2022-12-18T09:10:52;38.28;;;16.35;;
52057;SDS011;38063;53.210;6.504;2022-12-18T09:13:18;38.80;;;16.40;;
52057;SDS011;38063;53.210;6.504;2022-12-18T09:15:44;37.10;;;16.13;;
52057;SDS011;38063;53.210;6.504;2022-12-18T09:18:15;37.72;;;16.05;;
52057;SDS011;38063;53.210;6.504;2022-12-18T09:20:42;34.22;;;15.35;;
52057;SDS011;38063;53.210;6.504;2022-12-18T09:23:08;36.42;;;15.80;;
52057;SDS011;38063;53.210;6.504;2022-12-18T09:25:34;38.45;;;16.52;;
52057;SDS011;38063;53.210;6.504;2022-12-18T09:28:04;38.00;;;16.80;;
52057;SDS011;38063;53.210;6.504;2022-12-18T09:30:31;35.72;;;15.35;;
52057;SDS011;38063;53.210;6.504;2022-12-18T09:32:59;36.53;;;15.80;;
52057;SDS011;38063;53.210;6.504;2022-12-18T09:35:25;30.65;;;14.65;;
52057;SDS011;38063;53.210;6.504;2022-12-18T09:37:52;38.03;;;15.88;;
52057;SDS011;38063;53.210;6.504;2022-12-18T09:40:19;37.50;;;15.73;;
52057;SDS011;38063;53.210;6.504;2022-12-18T09:42:48;33.95;;;16.35;;
52057;SDS011;38063;53.210;6.504;2022-12-18T09:45:20;35.53;;;15.40;;
52057;SDS011;38063;53.210;6.504;2022-12-18T09:47:46;35.67;;;16.02;;
52057;SDS011;38063;53.210;6.504;2022-12-18T09:50:19;31.63;;;14.95;;
52057;SDS011;38063;53.210;6.504;2022-12-18T09:52:57;34.33;;;14.73;;
52057;SDS011;38063;53.210;6.504;2022-12-18T09:58:02;27.67;;;13.45;;
52057;SDS011;38063;53.210;6.504;2022-12-18T10:00:42;28.90;;;13.77;;
52057;SDS011;38063;53.210;6.504;2022-12-18T10:03:09;37.72;;;14.68;;
52057;SDS011;38063;53.210;6.504;2022-12-18T10:05:40;27.25;;;13.68;;
52057;SDS011;38063;53.210;6.504;2022-12-18T10:08:11;33.47;;;14.15;;
52057;SDS011;38063;53.210;6.504;2022-12-18T10:10:46;30.00;;;14.18;;
52057;SDS011;38063;53.210;6.504;2022-12-18T10:13:35;29.83;;;15.18;;
52057;SDS011;38063;53.210;6.504;2022-12-18T10:16:16;29.85;;;13.60;;
52057;SDS011;38063;53.210;6.504;2022-12-18T10:27:21;27.67;;;13.73;;
52057;SDS011;38063;53.210;6.504;2022-12-18T10:29:49;29.10;;;13.57;;
52057;SDS011;38063;53.210;6.504;2022-12-18T10:32:20;30.70;;;14.65;;
52057;SDS011;38063;53.210;6.504;2022-12-18T10:34:51;27.60;;;12.68;;
52057;SDS011;38063;53.210;6.504;2022-12-18T10:37:19;24.88;;;12.52;;
52057;SDS011;38063;53.210;6.504;2022-12-18T10:39:46;28.73;;;12.77;;
52057;SDS011;38063;53.210;6.504;2022-12-18T10:42:32;24.45;;;12.07;;
52057;SDS011;38063;53.210;6.504;2022-12-18T10:45:03;25.80;;;11.82;;
52057;SDS011;38063;53.210;6.504;2022-12-18T10:47:33;25.48;;;13.00;;
52057;SDS011;38063;53.210;6.504;2022-12-18T10:50:00;24.02;;;11.38;;
52057;SDS011;38063;53.210;6.504;2022-12-18T10:52:26;24.00;;;12.13;;
52057;SDS011;38063;53.210;6.504;2022-12-18T10:54:57;23.40;;;10.85;;
52057;SDS011;38063;53.210;6.504;2022-12-18T10:57:31;23.27;;;11.85;;
52057;SDS011;38063;53.210;6.504;2022-12-18T10:59:59;18.98;;;10.27;;
52057;SDS011;38063;53.210;6.504;2022-12-18T11:02:51;22.90;;;10.68;;
52057;SDS011;38063;53.210;6.504;2022-12-18T11:05:29;25.55;;;10.40;;
52057;SDS011;38063;53.210;6.504;2022-12-18T11:07:57;18.85;;;9.77;;
52057;SDS011;38063;53.210;6.504;2022-12-18T11:10:31;17.55;;;9.65;;
52057;SDS011;38063;53.210;6.504;2022-12-18T11:15:46;16.08;;;8.63;;
52057;SDS011;38063;53.210;6.504;2022-12-18T11:18:32;18.98;;;8.25;;
52057;SDS011;38063;53.210;6.504;2022-12-18T11:21:04;17.45;;;8.32;;
52057;SDS011;38063;53.210;6.504;2022-12-18T11:23:33;15.20;;;8.35;;
52057;SDS011;38063;53.210;6.504;2022-12-18T11:26:04;15.80;;;8.48;;
52057;SDS011;38063;53.210;6.504;2022-12-18T11:31:10;16.63;;;8.18;;
52057;SDS011;38063;53.210;6.504;2022-12-18T11:33:57;12.98;;;6.78;;
52057;SDS011;38063;53.210;6.504;2022-12-18T11:36:52;18.52;;;7.32;;
52057;SDS011;38063;53.210;6.504;2022-12-18T11:39:20;16.73;;;7.28;;
52057;SDS011;38063;53.210;6.504;2022-12-18T11:41:56;14.25;;;8.23;;
52057;SDS011;38063;53.210;6.504;2022-12-18T11:44:54;16.95;;;8.02;;
52057;SDS011;38063;53.210;6.504;2022-12-18T11:50:30;16.27;;;7.40;;
52057;SDS011;38063;53.210;6.504;2022-12-18T11:53:17;12.90;;;7.60;;
52057;SDS011;38063;53.210;6.504;2022-12-18T11:58:47;15.10;;;7.60;;
52057;SDS011;38063;53.210;6.504;2022-12-18T12:10:16;12.07;;;6.57;;
52057;SDS011;38063;53.210;6.504;2022-12-18T12:12:53;11.85;;;6.43;;
52057;SDS011;38063;53.210;6.504;2022-12-18T12:32:35;11.02;;;6.43;;
52057;SDS011;38063;53.210;6.504;2022-12-18T12:35:31;13.90;;;6.80;;
52057;SDS011;38063;53.210;6.504;2022-12-18T12:40:41;11.93;;;5.85;;
52057;SDS011;38063;53.210;6.504;2022-12-18T12:48:37;12.52;;;6.03;;
52057;SDS011;38063;53.210;6.504;2022-12-18T12:53:55;12.05;;;5.85;;
52057;SDS011;38063;53.210;6.504;2022-12-18T12:56:23;12.10;;;6.05;;
52057;SDS011;38063;53.210;6.504;2022-12-18T12:59:15;9.75;;;5.45;;
52057;SDS011;38063;53.210;6.504;2022-12-18T13:02:03;11.50;;;5.80;;
52057;SDS011;38063;53.210;6.504;2022-12-18T13:04:33;10.13;;;5.53;;
52057;SDS011;38063;53.210;6.504;2022-12-18T13:10:13;10.20;;;5.80;;
52057;SDS011;38063;53.210;6.504;2022-12-18T13:15:27;9.00;;;5.03;;
52057;SDS011;38063;53.210;6.504;2022-12-18T13:20:35;10.20;;;5.90;;
52057;SDS011;38063;53.210;6.504;2022-12-18T13:23:01;12.20;;;5.78;;
52057;SDS011;38063;53.210;6.504;2022-12-18T13:25:46;10.95;;;5.75;;
52057;SDS011;38063;53.210;6.504;2022-12-18T13:28:15;9.13;;;5.10;;
52057;SDS011;38063;53.210;6.504;2022-12-18T13:41:02;11.05;;;5.88;;
52057;SDS011;38063;53.210;6.504;2022-12-18T13:43:47;10.38;;;5.38;;
52057;SDS011;38063;53.210;6.504;2022-12-18T13:46:24;9.63;;;5.60;;
52057;SDS011;38063;53.210;6.504;2022-12-18T13:49:03;11.77;;;5.97;;
52057;SDS011;38063;53.210;6.504;2022-12-18T13:51:30;12.27;;;6.60;;
52057;SDS011;38063;53.210;6.504;2022-12-18T13:53:59;9.45;;;5.50;;
52057;SDS011;38063;53.210;6.504;2022-12-18T13:56:29;8.85;;;5.22;;
52057;SDS011;38063;53.210;6.504;2022-12-18T14:06:47;10.65;;;5.90;;
52057;SDS011;38063;53.210;6.504;2022-12-18T14:09:17;11.75;;;5.82;;
52057;SDS011;38063;53.210;6.504;2022-12-18T14:11:49;9.73;;;5.25;;
52057;SDS011;38063;53.210;6.504;2022-12-18T14:14:16;10.75;;;5.47;;
52057;SDS011;38063;53.210;6.504;2022-12-18T14:16:43;11.23;;;4.90;;
52057;SDS011;38063;53.210;6.504;2022-12-18T14:19:14;10.02;;;5.35;;
52057;SDS011;38063;53.210;6.504;2022-12-18T14:21:45;10.85;;;6.25;;
52057;SDS011;38063;53.210;6.504;2022-12-18T14:24:14;11.23;;;6.32;;
52057;SDS011;38063;53.210;6.504;2022-12-18T14:26:41;10.77;;;6.13;;
52057;SDS011;38063;53.210;6.504;2022-12-18T14:32:12;10.85;;;5.65;;
52057;SDS011;38063;53.210;6.504;2022-12-18T14:34:42;11.93;;;6.30;;
52057;SDS011;38063;53.210;6.504;2022-12-18T14:37:13;9.90;;;6.22;;
52057;SDS011;38063;53.210;6.504;2022-12-18T14:39:40;12.63;;;6.40;;
52057;SDS011;38063;53.210;6.504;2022-12-18T14:42:16;8.70;;;5.55;;
52057;SDS011;38063;53.210;6.504;2022-12-18T14:44:43;10.35;;;5.45;;
52057;SDS011;38063;53.210;6.504;2022-12-18T14:47:13;11.40;;;6.32;;
52057;SDS011;38063;53.210;6.504;2022-12-18T14:49:43;11.05;;;6.38;;
52057;SDS011;38063;53.210;6.504;2022-12-18T14:52:27;11.50;;;5.93;;
52057;SDS011;38063;53.210;6.504;2022-12-18T14:54:56;11.32;;;6.28;;
52057;SDS011;38063;53.210;6.504;2022-12-18T14:57:23;12.25;;;6.60;;
52057;SDS011;38063;53.210;6.504;2022-12-18T14:59:51;14.18;;;6.78;;
52057;SDS011;38063;53.210;6.504;2022-12-18T15:04:47;11.10;;;6.53;;
52057;SDS011;38063;53.210;6.504;2022-12-18T15:07:24;10.82;;;7.38;;
52057;SDS011;38063;53.210;6.504;2022-12-18T15:10:03;14.68;;;6.82;;
52057;SDS011;38063;53.210;6.504;2022-12-18T15:12:43;14.77;;;7.22;;
52057;SDS011;38063;53.210;6.504;2022-12-18T15:18:15;14.75;;;7.07;;
52057;SDS011;38063;53.210;6.504;2022-12-18T15:26:10;12.75;;;7.10;;
52057;SDS011;38063;53.210;6.504;2022-12-18T15:28:44;14.70;;;7.13;;
52057;SDS011;38063;53.210;6.504;2022-12-18T15:33:38;15.02;;;7.60;;
52057;SDS011;38063;53.210;6.504;2022-12-18T15:36:15;11.77;;;7.10;;
52057;SDS011;38063;53.210;6.504;2022-12-18T15:38:45;12.23;;;7.05;;
52057;SDS011;38063;53.210;6.504;2022-12-18T15:41:15;14.60;;;8.23;;
52057;SDS011;38063;53.210;6.504;2022-12-18T15:43:46;14.60;;;8.38;;
52057;SDS011;38063;53.210;6.504;2022-12-18T15:46:14;13.40;;;7.30;;
52057;SDS011;38063;53.210;6.504;2022-12-18T15:48:42;16.05;;;7.85;;
52057;SDS011;38063;53.210;6.504;2022-12-18T15:51:19;14.80;;;7.97;;
52057;SDS011;38063;53.210;6.504;2022-12-18T15:56:16;17.92;;;7.72;;
52057;SDS011;38063;53.210;6.504;2022-12-18T15:59:00;16.00;;;8.10;;
52057;SDS011;38063;53.210;6.504;2022-12-18T16:01:27;19.15;;;8.48;;
52057;SDS011;38063;53.210;6.504;2022-12-18T16:03:54;15.98;;;8.13;;
52057;SDS011;38063;53.210;6.504;2022-12-18T16:06:21;17.65;;;8.48;;
52057;SDS011;38063;53.210;6.504;2022-12-18T16:08:47;16.60;;;8.90;;
52057;SDS011;38063;53.210;6.504;2022-12-18T16:11:32;16.65;;;9.10;;
52057;SDS011;38063;53.210;6.504;2022-12-18T16:16:57;17.05;;;8.75;;
52057;SDS011;38063;53.210;6.504;2022-12-18T16:19:24;15.70;;;8.73;;
52057;SDS011;38063;53.210;6.504;2022-12-18T16:21:51;15.38;;;7.68;;
52057;SDS011;38063;53.210;6.504;2022-12-18T16:24:20;15.02;;;7.03;;
52057;SDS011;38063;53.210;6.504;2022-12-18T16:26:48;14.10;;;8.23;;
52057;SDS011;38063;53.210;6.504;2022-12-18T16:29:16;15.02;;;8.10;;
52057;SDS011;38063;53.210;6.504;2022-12-18T16:31:42;15.65;;;8.10;;
52057;SDS011;38063;53.210;6.504;2022-12-18T16:34:19;15.63;;;8.25;;
52057;SDS011;38063;53.210;6.504;2022-12-18T16:36:49;14.88;;;8.80;;
52057;SDS011;38063;53.210;6.504;2022-12-18T16:39:15;14.63;;;8.18;;
52057;SDS011;38063;53.210;6.504;2022-12-18T16:41:41;17.33;;;8.95;;
52057;SDS011;38063;53.210;6.504;2022-12-18T16:44:07;16.05;;;8.38;;
52057;SDS011;38063;53.210;6.504;2022-12-18T16:46:33;15.68;;;8.30;;
52057;SDS011;38063;53.210;6.504;2022-12-18T16:48:59;14.18;;;8.45;;
52057;SDS011;38063;53.210;6.504;2022-12-18T16:51:28;15.60;;;9.13;;
52057;SDS011;38063;53.210;6.504;2022-12-18T16:53:54;15.77;;;8.38;;
52057;SDS011;38063;53.210;6.504;2022-12-18T16:56:20;16.80;;;8.88;;